createdAt,value
2018-12-19T00:01:57.507Z,7.93
2018-12-19T00:04:26.226Z,8.53
2018-12-19T00:06:54.791Z,7.60
2018-12-19T00:09:23.854Z,8.37
2018-12-19T00:11:52.438Z,7.60
2018-12-19T00:14:21.337Z,8.40
2018-12-19T00:16:49.843Z,7.20
2018-12-19T00:19:18.768Z,8.30
2018-12-19T00:21:47.310Z,7.53
2018-12-19T00:24:16.214Z,7.53
2018-12-19T00:26:44.798Z,7.37
2018-12-19T00:29:13.389Z,8.40
2018-12-19T00:31:42.153Z,7.50
2018-12-19T00:34:10.709Z,7.67
2018-12-19T00:36:39.503Z,7.43
2018-12-19T00:39:09.644Z,7.90
2018-12-19T00:41:38.847Z,6.97
2018-12-19T00:44:07.375Z,6.57
2018-12-19T00:46:36.237Z,7.27
2018-12-19T00:49:04.818Z,7.20
2018-12-19T00:51:33.477Z,6.97
2018-12-19T00:54:02.026Z,7.10
2018-12-19T00:56:30.533Z,7.27
2018-12-19T00:58:59.411Z,7.40
2018-12-19T01:01:28.026Z,7.03
2018-12-19T01:03:57.036Z,7.40
2018-12-19T01:06:25.867Z,7.07
2018-12-19T01:08:54.553Z,6.47
2018-12-19T01:11:23.138Z,8.00
2018-12-19T01:13:51.681Z,8.60
2018-12-19T01:16:20.527Z,7.33
2018-12-19T01:18:49.090Z,7.47
2018-12-19T01:21:18.005Z,7.60
2018-12-19T01:23:46.502Z,6.93
2018-12-19T01:26:15.277Z,7.57
2018-12-19T01:28:43.842Z,8.63
2018-12-19T01:31:12.418Z,8.23
2018-12-19T01:33:41.050Z,7.70
2018-12-19T01:36:09.606Z,7.63
2018-12-19T01:38:38.321Z,8.00
2018-12-19T01:41:06.951Z,6.40
2018-12-19T01:43:35.972Z,6.93
2018-12-19T01:46:04.481Z,7.47
2018-12-19T01:48:33.054Z,6.53
2018-12-19T01:51:01.689Z,7.00
2018-12-19T01:53:30.273Z,7.23
2018-12-19T01:55:59.266Z,6.63
2018-12-19T01:58:27.830Z,7.97
2018-12-19T02:00:56.629Z,5.90
2018-12-19T02:03:25.218Z,7.57
2018-12-19T02:05:53.861Z,6.40
2018-12-19T02:08:22.406Z,6.67
2018-12-19T02:10:50.910Z,6.93
2018-12-19T02:13:19.598Z,7.27
2018-12-19T02:15:48.118Z,6.40
2018-12-19T02:18:17.434Z,6.40
2018-12-19T02:20:46.026Z,6.43
2018-12-19T02:23:14.719Z,7.43
2018-12-19T02:25:43.380Z,6.73
2018-12-19T02:28:12.138Z,6.40
2018-12-19T02:30:40.781Z,5.57
2018-12-19T02:33:09.339Z,6.87
2018-12-19T02:35:38.881Z,6.50
2018-12-19T02:38:07.399Z,6.97
2018-12-19T02:40:36.390Z,7.53
2018-12-19T02:43:05.038Z,7.60
2018-12-19T02:45:33.991Z,6.63
2018-12-19T02:48:02.558Z,7.23
2018-12-19T02:50:31.169Z,6.63
2018-12-19T02:52:59.699Z,6.47
2018-12-19T02:55:28.428Z,7.27
2018-12-19T02:57:57.065Z,7.77
2018-12-19T03:00:25.689Z,6.63
2018-12-19T03:02:54.615Z,6.43
2018-12-19T03:05:23.406Z,6.90
2018-12-19T03:07:52.092Z,8.30
2018-12-19T03:10:20.677Z,6.97
2018-12-19T03:12:49.386Z,7.53
2018-12-19T03:15:18.007Z,6.03
2018-12-19T03:17:46.558Z,7.77
2018-12-19T03:20:15.444Z,8.00
2018-12-19T03:22:43.975Z,6.93
2018-12-19T03:25:12.519Z,7.17
2018-12-19T03:27:41.062Z,7.33
2018-12-19T03:30:09.927Z,8.60
2018-12-19T03:32:39.015Z,7.97
2018-12-19T03:35:07.614Z,8.03
2018-12-19T03:37:36.464Z,7.80
2018-12-19T03:40:05.530Z,7.63
2018-12-19T03:45:13.302Z,7.87
2018-12-19T03:47:41.818Z,7.73
2018-12-19T03:50:11.590Z,7.30
2018-12-19T03:52:40.146Z,6.53
2018-12-19T03:55:08.974Z,7.00
2018-12-19T04:00:16.395Z,6.23
2018-12-19T04:02:45.357Z,7.50
2018-12-19T04:05:13.937Z,6.83
2018-12-19T04:07:43.335Z,7.30
2018-12-19T04:10:12.000Z,6.97
2018-12-19T04:12:41.023Z,7.17
2018-12-19T04:15:09.599Z,8.03
2018-12-19T04:17:38.220Z,6.83
2018-12-19T04:20:07.013Z,7.30
2018-12-19T04:22:35.531Z,6.97
2018-12-19T04:25:04.421Z,7.40
2018-12-19T04:27:33.003Z,6.33
2018-12-19T04:30:01.934Z,6.40
2018-12-19T04:32:30.771Z,7.17
2018-12-19T04:34:59.444Z,7.17
2018-12-19T04:37:28.064Z,6.43
2018-12-19T04:40:05.088Z,6.83
2018-12-19T04:42:28.065Z,6.87
2018-12-19T04:44:56.750Z,6.70
2018-12-19T04:47:25.277Z,6.27
2018-12-19T04:49:53.804Z,7.00
2018-12-19T04:52:22.706Z,6.70
2018-12-19T04:54:51.335Z,6.60
2018-12-19T04:57:20.531Z,6.47
2018-12-19T04:59:49.111Z,6.77
2018-12-19T05:02:17.903Z,7.00
2018-12-19T05:04:46.502Z,7.23
2018-12-19T05:07:15.135Z,7.37
2018-12-19T05:09:43.961Z,6.73
2018-12-19T05:12:12.537Z,7.00
2018-12-19T05:17:19.141Z,7.60
2018-12-19T05:19:48.030Z,7.13
2018-12-19T05:22:16.865Z,6.90
2018-12-19T05:24:45.450Z,7.40
2018-12-19T05:27:14.407Z,7.23
2018-12-19T05:29:43.061Z,7.17
2018-12-19T05:32:11.782Z,6.97
2018-12-19T05:34:40.329Z,7.17
2018-12-19T05:37:08.930Z,7.13
2018-12-19T05:39:37.499Z,7.60
2018-12-19T05:42:06.077Z,6.87
2018-12-19T05:44:34.774Z,7.47
2018-12-19T05:47:03.355Z,6.77
2018-12-19T05:49:32.283Z,6.93
2018-12-19T05:52:00.798Z,6.90
2018-12-19T05:54:29.319Z,6.67
2018-12-19T05:56:57.938Z,7.23
2018-12-19T05:59:26.612Z,6.63
2018-12-19T06:01:55.407Z,6.85
2018-12-19T06:06:44.637Z,7.17
2018-12-19T06:09:13.307Z,6.97
2018-12-19T06:11:42.006Z,6.80
2018-12-19T06:14:10.604Z,6.50
2018-12-19T06:16:39.494Z,7.00
2018-12-19T06:19:08.165Z,7.03
2018-12-19T06:21:36.943Z,7.23
2018-12-19T06:24:05.614Z,7.27
2018-12-19T06:26:34.403Z,6.77
2018-12-19T06:29:03.007Z,5.87
2018-12-19T06:31:32.078Z,6.10
2018-12-19T06:34:00.892Z,8.00
2018-12-19T06:36:29.596Z,6.40
2018-12-19T06:38:58.825Z,6.63
2018-12-19T06:41:27.383Z,6.80
2018-12-19T06:43:56.343Z,6.33
2018-12-19T06:46:25.134Z,7.10
2018-12-19T06:48:54.612Z,6.67
2018-12-19T06:51:23.222Z,7.23
2018-12-19T06:53:51.904Z,6.60
2018-12-19T06:56:20.594Z,7.47
2018-12-19T06:58:49.635Z,6.83
2018-12-19T07:01:18.383Z,7.47
2018-12-19T07:03:46.979Z,7.17
2018-12-19T07:06:15.950Z,6.80
2018-12-19T07:08:44.778Z,7.00
2018-12-19T07:11:14.372Z,6.83
2018-12-19T07:13:43.025Z,6.50
2018-12-19T07:16:12.056Z,7.27
2018-12-19T07:18:40.787Z,6.23
2018-12-19T07:21:09.405Z,7.57
2018-12-19T07:23:38.141Z,6.90
2018-12-19T07:26:06.784Z,6.40
2018-12-19T07:28:35.603Z,6.67
2018-12-19T07:31:04.234Z,6.73
2018-12-19T07:33:33.046Z,7.03
2018-12-19T07:36:01.687Z,6.47
2018-12-19T07:38:30.583Z,6.57
2018-12-19T07:40:59.355Z,6.23
2018-12-19T07:43:28.507Z,7.13
2018-12-19T07:45:57.240Z,6.80
2018-12-19T07:48:26.096Z,6.80
2018-12-19T07:50:54.682Z,7.83
2018-12-19T07:53:23.194Z,7.13
2018-12-19T07:55:52.129Z,7.53
2018-12-19T07:58:20.864Z,7.00
2018-12-19T08:03:28.133Z,8.47
2018-12-19T08:05:56.890Z,7.43
2018-12-19T08:08:25.547Z,7.57
2018-12-19T08:10:54.227Z,7.90
2018-12-19T08:13:23.044Z,7.60
2018-12-19T08:15:51.636Z,7.00
2018-12-19T08:18:20.467Z,7.97
2018-12-19T08:20:49.407Z,7.77
2018-12-19T08:23:18.345Z,7.77
2018-12-19T08:25:47.112Z,7.47
2018-12-19T08:28:15.639Z,7.70
2018-12-19T08:30:44.563Z,7.83
2018-12-19T08:33:13.118Z,7.13
2018-12-19T08:35:41.960Z,7.30
2018-12-19T08:38:11.232Z,8.37
2018-12-19T08:40:40.009Z,7.10
2018-12-19T08:43:08.555Z,8.77
2018-12-19T08:45:37.572Z,6.83
2018-12-19T08:48:06.173Z,7.03
2018-12-19T08:50:34.778Z,8.43
2018-12-19T08:53:03.658Z,8.03
2018-12-19T08:55:32.229Z,7.17
2018-12-19T08:58:01.129Z,6.90
2018-12-19T09:00:29.691Z,7.37
2018-12-19T09:02:58.357Z,8.27
2018-12-19T09:05:26.944Z,7.10
2018-12-19T09:07:55.498Z,6.73
2018-12-19T09:10:24.175Z,7.57
2018-12-19T09:12:52.719Z,6.70
2018-12-19T09:15:27.829Z,7.37
2018-12-19T09:17:56.931Z,7.73
2018-12-19T09:20:25.479Z,6.60
2018-12-19T09:22:54.378Z,6.80
2018-12-19T09:25:22.947Z,6.67
2018-12-19T09:27:51.607Z,6.60
2018-12-19T09:30:20.346Z,6.90
2018-12-19T09:32:48.858Z,6.67
2018-12-19T09:35:17.837Z,6.37
2018-12-19T09:37:46.366Z,7.13
2018-12-19T09:40:15.347Z,6.73
2018-12-19T09:42:43.941Z,6.20
2018-12-19T09:45:12.771Z,6.40
2018-12-19T09:47:41.351Z,6.70
2018-12-19T09:50:09.898Z,5.53
2018-12-19T09:52:38.803Z,6.10
2018-12-19T09:55:07.350Z,6.93
2018-12-19T09:57:36.482Z,6.43
2018-12-19T10:00:06.930Z,6.13
2018-12-19T10:02:35.818Z,6.77
2018-12-19T10:05:04.398Z,6.80
2018-12-19T10:07:33.404Z,6.63
2018-12-19T10:10:01.943Z,6.10
2018-12-19T10:12:30.711Z,7.53
2018-12-19T10:14:59.279Z,7.33
2018-12-19T10:17:27.886Z,5.90
2018-12-19T10:19:56.536Z,6.83
2018-12-19T10:22:30.520Z,6.50
2018-12-19T10:25:04.520Z,6.67
2018-12-19T10:27:33.248Z,6.83
2018-12-19T10:30:01.771Z,7.00
2018-12-19T10:32:35.578Z,6.67
2018-12-19T10:35:04.603Z,7.40
2018-12-19T10:37:33.185Z,7.30
2018-12-19T10:40:01.908Z,6.87
2018-12-19T10:42:30.440Z,6.47
2018-12-19T10:44:58.979Z,6.73
2018-12-19T10:47:27.611Z,6.27
2018-12-19T10:49:56.224Z,6.50
2018-12-19T10:52:24.891Z,6.77
2018-12-19T10:54:53.497Z,6.80
2018-12-19T10:57:22.516Z,6.53
2018-12-19T10:59:51.174Z,6.77
2018-12-19T11:02:19.780Z,6.30
2018-12-19T11:04:48.390Z,6.17
2018-12-19T11:07:16.966Z,6.80
2018-12-19T11:09:45.879Z,6.57
2018-12-19T11:12:14.477Z,7.03
2018-12-19T11:14:43.367Z,5.90
2018-12-19T11:17:12.079Z,7.57
2018-12-19T11:19:40.829Z,6.47
2018-12-19T11:22:11.010Z,6.17
2018-12-19T11:24:40.264Z,6.73
2018-12-19T11:27:09.064Z,6.37
2018-12-19T11:29:37.686Z,5.93
2018-12-19T11:32:06.280Z,6.27
2018-12-19T11:34:34.926Z,6.40
2018-12-19T11:37:05.138Z,7.27
2018-12-19T11:39:33.752Z,6.87
2018-12-19T11:44:41.527Z,6.03
2018-12-19T11:47:10.067Z,6.43
2018-12-19T11:49:38.775Z,6.53
2018-12-19T11:52:07.387Z,6.87
2018-12-19T11:54:36.369Z,6.33
2018-12-19T11:57:05.229Z,5.90
2018-12-19T11:59:34.446Z,6.63
2018-12-19T12:02:03.047Z,5.87
2018-12-19T12:04:31.792Z,6.73
2018-12-19T12:07:00.778Z,6.77
2018-12-19T12:09:29.354Z,6.47
2018-12-19T12:11:57.975Z,6.30
2018-12-19T12:14:26.678Z,5.20
2018-12-19T12:16:55.583Z,6.10
2018-12-19T12:19:24.130Z,5.63
2018-12-19T12:21:52.931Z,6.13
2018-12-19T12:24:21.483Z,6.23
2018-12-19T12:26:50.147Z,6.20
2018-12-19T12:29:18.871Z,6.13
2018-12-19T12:31:47.460Z,6.10
2018-12-19T12:34:16.468Z,6.03
2018-12-19T12:36:45.149Z,6.53
2018-12-19T12:39:13.941Z,6.87
2018-12-19T12:41:42.510Z,5.67
2018-12-19T12:44:11.520Z,5.43
2018-12-19T12:46:40.151Z,6.13
2018-12-19T12:49:08.861Z,5.60
2018-12-19T12:51:37.475Z,5.90
2018-12-19T12:54:06.131Z,5.83
2018-12-19T12:56:35.006Z,5.00
2018-12-19T12:59:03.627Z,7.23
2018-12-19T13:01:32.428Z,5.47
2018-12-19T13:04:01.004Z,6.17
2018-12-19T13:06:29.720Z,5.57
2018-12-19T13:08:58.371Z,5.70
2018-12-19T13:11:26.924Z,5.50
2018-12-19T13:13:55.694Z,5.87
2018-12-19T13:16:24.231Z,5.33
2018-12-19T13:18:53.301Z,5.33
2018-12-19T13:21:21.897Z,5.93
2018-12-19T13:23:50.586Z,5.87
2018-12-19T13:26:19.141Z,5.27
2018-12-19T13:28:47.895Z,5.13
2018-12-19T13:31:16.505Z,6.37
2018-12-19T13:33:45.041Z,5.53
2018-12-19T13:36:14.113Z,6.00
2018-12-19T13:38:42.609Z,5.50
2018-12-19T13:41:11.738Z,5.30
2018-12-19T13:43:40.380Z,5.27
2018-12-19T13:46:09.152Z,5.47
2018-12-19T13:48:37.753Z,5.37
2018-12-19T13:51:06.388Z,5.80
2018-12-19T13:53:35.116Z,5.00
2018-12-19T13:56:03.900Z,5.40
2018-12-19T13:58:33.446Z,6.17
2018-12-19T14:01:02.091Z,6.67
2018-12-19T14:03:31.071Z,5.53
2018-12-19T14:05:59.803Z,6.43
2018-12-19T14:08:28.777Z,6.00
2018-12-19T14:10:57.379Z,5.73
2018-12-19T14:13:26.264Z,6.27
2018-12-19T14:15:54.814Z,5.50
2018-12-19T14:18:23.394Z,5.73
2018-12-19T14:20:52.421Z,6.13
2018-12-19T14:23:21.069Z,6.30
2018-12-19T14:25:49.931Z,5.47
2018-12-19T14:28:18.756Z,7.23
2018-12-19T14:30:47.476Z,6.70
2018-12-19T14:33:16.226Z,6.00
2018-12-19T14:35:46.869Z,6.40
2018-12-19T14:38:15.636Z,6.20
2018-12-19T14:40:44.355Z,7.33
2018-12-19T14:43:13.410Z,6.77
2018-12-19T14:45:42.044Z,6.90
2018-12-19T14:48:10.679Z,6.43
2018-12-19T14:50:39.278Z,7.17
2018-12-19T14:53:08.020Z,7.00
2018-12-19T14:55:36.658Z,6.83
2018-12-19T14:58:05.345Z,7.13
2018-12-19T15:00:34.325Z,6.40
2018-12-19T15:03:03.419Z,7.17
2018-12-19T15:05:31.989Z,7.00
2018-12-19T15:08:00.627Z,6.20
2018-12-19T15:10:32.707Z,7.13
2018-12-19T15:13:01.377Z,6.97
2018-12-19T15:15:30.069Z,6.77
2018-12-19T15:17:58.839Z,7.87
2018-12-19T15:20:27.434Z,7.40
2018-12-19T15:22:56.040Z,7.17
2018-12-19T15:25:24.999Z,7.33
2018-12-19T15:27:53.633Z,7.43
2018-12-19T15:30:22.350Z,7.80
2018-12-19T15:32:51.195Z,7.40
2018-12-19T15:35:19.851Z,8.27
2018-12-19T15:37:48.465Z,7.40
2018-12-19T15:40:17.129Z,7.67
2018-12-19T15:42:45.826Z,7.50
2018-12-19T15:45:14.418Z,7.83
2018-12-19T15:50:22.158Z,7.83
2018-12-19T15:52:50.879Z,8.47
2018-12-19T15:55:19.519Z,7.37
2018-12-19T15:57:48.114Z,8.23
2018-12-19T16:00:17.549Z,7.80
2018-12-19T16:02:46.213Z,7.83
2018-12-19T16:05:15.109Z,7.60
2018-12-19T16:07:43.781Z,7.97
2018-12-19T16:10:12.608Z,7.83
2018-12-19T16:12:41.346Z,8.27
2018-12-19T16:15:10.084Z,9.08
2018-12-19T16:17:38.845Z,8.67
2018-12-19T16:20:09.091Z,9.20
2018-12-19T16:22:37.935Z,8.20
2018-12-19T16:25:06.702Z,8.03
2018-12-19T16:27:36.059Z,8.47
2018-12-19T16:30:05.308Z,8.77
2018-12-19T16:32:34.124Z,9.00
2018-12-19T16:35:02.898Z,8.20
2018-12-19T16:37:31.977Z,8.80
2018-12-19T16:40:00.566Z,8.10
2018-12-19T16:42:29.393Z,7.67
2018-12-19T16:44:58.113Z,8.83
2018-12-19T16:47:26.831Z,9.43
2018-12-19T16:49:55.390Z,9.13
2018-12-19T16:52:23.978Z,8.97
2018-12-19T16:54:52.657Z,8.83
2018-12-19T16:57:21.264Z,8.93
2018-12-19T16:59:50.179Z,8.73
2018-12-19T17:02:18.814Z,9.03
2018-12-19T17:04:47.370Z,8.50
2018-12-19T17:07:15.923Z,8.50
2018-12-19T17:09:44.430Z,9.10
2018-12-19T17:12:13.461Z,9.30
2018-12-19T17:14:42.105Z,9.30
2018-12-19T17:17:10.892Z,9.23
2018-12-19T17:19:39.496Z,8.87
2018-12-19T17:22:08.279Z,9.60
2018-12-19T17:24:41.262Z,9.63
2018-12-19T17:27:10.410Z,9.20
2018-12-19T17:29:39.730Z,9.07
2018-12-19T17:32:08.890Z,8.97
2018-12-19T17:34:37.543Z,9.07
2018-12-19T17:37:06.682Z,10.70
2018-12-19T17:39:35.493Z,9.67
2018-12-19T17:42:04.629Z,10.03
2018-12-19T17:44:33.275Z,9.83
2018-12-19T17:47:02.311Z,10.37
2018-12-19T17:49:31.156Z,10.40
2018-12-19T17:52:00.251Z,9.43
2018-12-19T17:54:29.023Z,9.80
2018-12-19T17:56:57.600Z,9.50
2018-12-19T17:59:26.283Z,10.30
2018-12-19T18:01:54.820Z,9.50
2018-12-19T18:04:23.891Z,10.57
2018-12-19T18:06:52.483Z,9.50
2018-12-19T18:09:21.241Z,10.20
2018-12-19T18:11:49.880Z,10.03
2018-12-19T18:14:18.786Z,9.87
2018-12-19T18:16:47.712Z,9.87
2018-12-19T18:19:23.194Z,10.07
2018-12-19T18:21:47.191Z,9.83
2018-12-19T18:24:15.902Z,11.83
2018-12-19T18:26:44.766Z,10.23
2018-12-19T18:29:13.354Z,9.90
2018-12-19T18:31:42.265Z,10.47
2018-12-19T18:34:10.902Z,12.30
2018-12-19T18:36:39.985Z,10.30
2018-12-19T18:39:09.820Z,11.20
2018-12-19T18:41:38.538Z,10.93
2018-12-19T18:44:07.186Z,10.93
2018-12-19T18:46:36.174Z,10.77
2018-12-19T18:49:05.166Z,10.37
2018-12-19T18:51:34.002Z,11.00
2018-12-19T18:54:02.602Z,10.90
2018-12-19T18:56:31.298Z,11.53
2018-12-19T18:59:00.479Z,10.63
2018-12-19T19:01:29.114Z,10.13
2018-12-19T19:03:58.015Z,11.60
2018-12-19T19:06:26.640Z,11.60
2018-12-19T19:08:55.767Z,11.30
2018-12-19T19:11:24.958Z,10.63
2018-12-19T19:13:53.534Z,11.40
2018-12-19T19:16:22.090Z,11.00
2018-12-19T19:18:50.726Z,11.63
2018-12-19T19:21:19.632Z,12.00
2018-12-19T19:23:48.219Z,11.87
2018-12-19T19:26:16.878Z,11.10
2018-12-19T19:28:45.599Z,11.63
2018-12-19T19:31:14.239Z,12.27
2018-12-19T19:33:42.984Z,12.43
2018-12-19T19:36:11.691Z,12.77
2018-12-19T19:38:41.070Z,13.17
2018-12-19T19:41:10.064Z,12.50
2018-12-19T19:43:39.133Z,12.60
2018-12-19T19:46:07.800Z,12.67
2018-12-19T19:48:36.631Z,12.47
2018-12-19T19:51:05.310Z,13.67
2018-12-19T19:53:34.194Z,12.53
2018-12-19T19:56:03.008Z,12.27
2018-12-19T19:58:31.722Z,11.83
2018-12-19T20:01:00.319Z,12.97
2018-12-19T20:03:28.867Z,11.80
2018-12-19T20:05:57.920Z,11.07
2018-12-19T20:08:26.526Z,10.93
2018-12-19T20:10:55.401Z,12.33
2018-12-19T20:13:24.100Z,12.73
2018-12-19T20:15:52.869Z,12.43
2018-12-19T20:18:21.464Z,12.17
2018-12-19T20:20:50.139Z,11.63
2018-12-19T20:23:19.077Z,12.07
2018-12-19T20:25:47.732Z,11.27
2018-12-19T20:28:16.889Z,11.67
2018-12-19T20:30:45.459Z,12.30
2018-12-19T20:33:14.592Z,11.30
2018-12-19T20:35:43.291Z,12.27
2018-12-19T20:38:11.975Z,11.30
2018-12-19T20:40:40.685Z,11.60
2018-12-19T20:43:09.334Z,11.67
2018-12-19T20:45:38.667Z,10.75
2018-12-19T20:48:07.473Z,11.30
2018-12-19T20:50:36.536Z,10.77
2018-12-19T20:53:05.282Z,10.53
2018-12-19T20:55:34.211Z,11.17
2018-12-19T20:58:02.839Z,9.50
2018-12-19T21:00:31.995Z,10.33
2018-12-19T21:03:00.703Z,10.57
2018-12-19T21:05:29.348Z,9.93
2018-12-19T21:07:57.919Z,9.17
2018-12-19T21:10:26.531Z,9.63
2018-12-19T21:12:55.620Z,9.10
2018-12-19T21:15:24.205Z,8.60
2018-12-19T21:17:57.939Z,8.93
2018-12-19T21:20:26.602Z,9.70
2018-12-19T21:22:55.140Z,9.43
2018-12-19T21:25:23.868Z,9.07
2018-12-19T21:27:52.660Z,8.63
2018-12-19T21:30:21.218Z,9.43
2018-12-19T21:32:50.394Z,9.40
2018-12-19T21:35:19.135Z,8.73
2018-12-19T21:37:48.008Z,9.33
2018-12-19T21:40:16.694Z,8.13
2018-12-19T21:42:45.387Z,8.77
2018-12-19T21:45:14.030Z,9.43
2018-12-19T21:47:42.738Z,9.00
2018-12-19T21:50:11.469Z,9.70
2018-12-19T21:52:40.321Z,9.07
2018-12-19T21:57:48.021Z,9.07
2018-12-19T22:00:22.588Z,9.93
2018-12-19T22:02:51.292Z,9.73
2018-12-19T22:05:20.437Z,9.00
2018-12-19T22:07:49.035Z,9.20
2018-12-19T22:12:57.284Z,9.27
2018-12-19T22:15:25.897Z,9.10
2018-12-19T22:17:59.838Z,9.30
2018-12-19T22:20:28.595Z,10.60
2018-12-19T22:22:57.189Z,9.37
2018-12-19T22:25:25.951Z,10.27
2018-12-19T22:27:54.583Z,9.40
2018-12-19T22:30:23.222Z,9.57
2018-12-19T22:32:52.078Z,10.03
2018-12-19T22:35:20.834Z,9.57
2018-12-19T22:37:49.482Z,9.23
2018-12-19T22:40:18.262Z,9.70
2018-12-19T22:42:47.403Z,10.57
2018-12-19T22:45:15.952Z,10.05
2018-12-19T22:47:44.926Z,9.97
2018-12-19T22:50:14.264Z,10.20
2018-12-19T22:55:09.601Z,8.83
2018-12-19T22:57:38.223Z,9.20
2018-12-19T23:00:12.231Z,9.50
2018-12-19T23:02:46.083Z,9.80
2018-12-19T23:05:16.999Z,9.67
2018-12-19T23:07:45.619Z,9.37
2018-12-19T23:10:14.475Z,9.33
2018-12-19T23:12:43.236Z,10.07
2018-12-19T23:15:11.938Z,9.93
2018-12-19T23:17:40.940Z,10.00
2018-12-19T23:20:11.022Z,10.37
2018-12-19T23:22:39.926Z,9.53
2018-12-19T23:25:08.685Z,10.70
2018-12-19T23:27:38.898Z,8.83
2018-12-19T23:30:08.602Z,10.10
2018-12-19T23:32:37.538Z,10.53
2018-12-19T23:35:06.437Z,10.40
2018-12-19T23:37:35.548Z,8.83
2018-12-19T23:40:04.423Z,9.93
2018-12-19T23:42:33.535Z,9.70
2018-12-19T23:45:02.199Z,9.93
2018-12-19T23:47:30.970Z,9.03
2018-12-19T23:49:59.512Z,9.63
2018-12-19T23:52:28.120Z,9.63
2018-12-19T23:54:57.042Z,10.10
2018-12-19T23:57:25.753Z,9.30
2018-12-19T23:59:55.346Z,9.25
